createdAt,value
2023-03-26T00:01:13.754Z,97.70
2023-03-26T00:03:40.792Z,97.33
2023-03-26T00:06:10.428Z,96.70
2023-03-26T00:08:38.260Z,95.76
2023-03-26T00:11:05.946Z,95.70
2023-03-26T00:13:33.145Z,96.23
2023-03-26T00:16:00.238Z,95.50
2023-03-26T00:18:30.727Z,95.18
2023-03-26T00:21:02.698Z,95.67
2023-03-26T00:23:30.256Z,94.98
2023-03-26T00:25:56.957Z,95.76
2023-03-26T00:28:24.245Z,95.67
2023-03-26T00:30:58.338Z,95.93
2023-03-26T00:33:25.237Z,95.90
2023-03-26T00:35:54.501Z,95.67
2023-03-26T00:38:23.978Z,96.07
2023-03-26T00:40:51.920Z,96.57
2023-03-26T00:43:20.315Z,96.88
2023-03-26T00:45:49.486Z,96.13
2023-03-26T00:48:17.129Z,96.21
2023-03-26T00:50:46.298Z,95.90
2023-03-26T00:53:14.274Z,95.55
2023-03-26T00:55:42.177Z,95.70
2023-03-26T00:58:11.998Z,95.63
2023-03-26T01:00:57.347Z,96.12
2023-03-26T01:03:25.877Z,95.50
2023-03-26T01:06:04.790Z,95.14
2023-03-26T01:08:35.380Z,95.65
2023-03-26T01:11:07.564Z,96.30
2023-03-26T01:13:38.055Z,94.90
2023-03-26T01:16:11.200Z,94.34
2023-03-26T01:18:41.023Z,94.18
2023-03-26T01:21:09.212Z,93.19
2023-03-26T01:23:46.656Z,92.91
2023-03-26T01:26:39.518Z,92.11
2023-03-26T01:29:12.371Z,91.08
2023-03-26T01:31:55.281Z,91.40
2023-03-26T01:34:33.721Z,91.17
2023-03-26T01:37:13.235Z,89.75
2023-03-26T01:39:57.431Z,88.67
2023-03-26T01:42:39.896Z,88.66
2023-03-26T01:45:21.529Z,87.60
2023-03-26T01:47:48.380Z,87.07
2023-03-26T01:50:15.252Z,86.89
2023-03-26T01:52:42.189Z,87.30
2023-03-26T01:55:14.168Z,86.74
2023-03-26T01:58:04.967Z,86.89
2023-03-26T02:00:37.571Z,86.47
2023-03-26T02:03:19.354Z,86.28
2023-03-26T02:06:06.159Z,86.27
2023-03-26T02:08:41.231Z,86.13
2023-03-26T02:11:13.133Z,86.09
2023-03-26T02:13:41.778Z,86.96
2023-03-26T02:16:39.146Z,86.47
2023-03-26T02:19:09.906Z,86.21
2023-03-26T02:21:36.623Z,86.77
2023-03-26T02:24:03.886Z,86.85
2023-03-26T02:26:35.668Z,87.50
2023-03-26T02:29:13.293Z,87.16
2023-03-26T02:31:43.242Z,87.73
2023-03-26T02:34:09.723Z,87.58
2023-03-26T02:36:38.522Z,88.30
2023-03-26T02:39:06.599Z,88.60
2023-03-26T02:41:40.275Z,88.96
2023-03-26T02:44:10.170Z,88.96
2023-03-26T02:47:06.166Z,88.90
2023-03-26T02:49:51.391Z,90.05
2023-03-26T02:52:36.610Z,89.69
2023-03-26T02:55:04.314Z,89.78
2023-03-26T02:57:31.811Z,89.42
2023-03-26T02:59:58.233Z,88.96
2023-03-26T03:02:38.465Z,87.74
2023-03-26T03:05:26.530Z,87.57
2023-03-26T03:08:11.404Z,87.16
2023-03-26T03:10:55.923Z,85.98
2023-03-26T03:13:31.351Z,85.06
2023-03-26T03:15:58.218Z,84.73
2023-03-26T03:18:24.985Z,83.51
2023-03-26T03:20:52.109Z,82.39
2023-03-26T03:23:18.768Z,82.41
2023-03-26T03:25:46.160Z,83.25
2023-03-26T03:28:13.743Z,82.35
2023-03-26T03:30:40.331Z,81.72
2023-03-26T03:33:13.777Z,80.16
2023-03-26T03:35:41.546Z,80.61
2023-03-26T03:38:08.138Z,80.51
2023-03-26T03:40:43.980Z,81.52
2023-03-26T03:43:10.758Z,82.38
2023-03-26T03:45:47.318Z,83.48
2023-03-26T03:48:28.318Z,83.93
2023-03-26T03:50:55.520Z,84.44
2023-03-26T03:53:30.374Z,85.32
2023-03-26T03:55:59.712Z,86.87
2023-03-26T03:58:46.298Z,87.79
2023-03-26T04:01:18.635Z,88.56
2023-03-26T04:04:05.462Z,89.40
2023-03-26T04:06:50.912Z,91.19
2023-03-26T04:09:17.714Z,91.22
2023-03-26T04:11:46.384Z,91.60
2023-03-26T04:14:29.144Z,93.08
2023-03-26T04:17:10.306Z,92.96
2023-03-26T04:19:38.366Z,93.81
2023-03-26T04:22:07.421Z,93.77
2023-03-26T04:24:40.907Z,94.12
2023-03-26T04:27:31.436Z,94.27
2023-03-26T04:30:20.414Z,93.97
2023-03-26T04:32:54.120Z,94.14
2023-03-26T04:35:20.823Z,94.26
2023-03-26T04:37:53.028Z,94.65
2023-03-26T04:40:26.459Z,94.04
2023-03-26T04:43:16.396Z,94.03
2023-03-26T04:45:57.722Z,93.08
2023-03-26T04:48:27.335Z,93.21
2023-03-26T04:50:54.007Z,91.93
2023-03-26T04:53:22.690Z,92.08
2023-03-26T04:56:34.625Z,91.84
2023-03-26T04:59:30.004Z,92.30
2023-03-26T05:01:58.938Z,93.67
2023-03-26T05:04:31.517Z,94.00
2023-03-26T05:06:58.763Z,94.09
2023-03-26T05:09:37.340Z,94.55
2023-03-26T05:12:12.508Z,93.55
2023-03-26T05:15:04.341Z,94.58
2023-03-26T05:17:49.381Z,95.14
2023-03-26T05:20:27.196Z,95.59
2023-03-26T05:22:53.702Z,96.06
2023-03-26T05:25:25.550Z,94.70
2023-03-26T05:27:53.112Z,94.81
2023-03-26T05:30:22.240Z,95.28
2023-03-26T05:32:54.740Z,95.64
2023-03-26T05:35:27.092Z,95.16
2023-03-26T05:37:54.802Z,95.71
2023-03-26T05:40:23.746Z,95.89
2023-03-26T05:42:54.662Z,95.59
2023-03-26T05:45:44.255Z,95.97
2023-03-26T05:48:30.227Z,95.21
2023-03-26T05:50:58.120Z,94.52
2023-03-26T05:53:27.316Z,95.04
2023-03-26T05:56:20.736Z,95.44
2023-03-26T05:59:22.135Z,95.20
2023-03-26T06:02:11.421Z,95.71
2023-03-26T06:04:45.754Z,94.89
2023-03-26T06:07:45.669Z,95.43
2023-03-26T06:10:18.973Z,95.61
2023-03-26T06:12:46.266Z,94.49
2023-03-26T06:15:12.900Z,94.34
2023-03-26T06:17:48.013Z,93.32
2023-03-26T06:20:32.139Z,92.82
2023-03-26T06:23:00.561Z,90.65
2023-03-26T06:25:47.746Z,90.91
2023-03-26T06:28:23.280Z,91.32
2023-03-26T06:31:19.586Z,91.28
2023-03-26T06:34:11.352Z,92.01
2023-03-26T06:36:37.848Z,91.34
2023-03-26T06:39:07.549Z,91.65
2023-03-26T06:41:35.757Z,92.00
2023-03-26T06:44:12.936Z,91.98
2023-03-26T06:46:58.124Z,91.53
2023-03-26T06:49:44.925Z,91.74
2023-03-26T06:52:21.880Z,90.96
2023-03-26T06:55:05.868Z,90.71
2023-03-26T06:57:58.632Z,90.22
2023-03-26T07:00:47.766Z,89.79
2023-03-26T07:03:43.421Z,88.19
2023-03-26T07:06:28.576Z,88.15
2023-03-26T07:09:13.758Z,87.54
2023-03-26T07:11:49.464Z,86.88
2023-03-26T07:14:41.995Z,87.30
2023-03-26T07:17:28.783Z,87.16
2023-03-26T07:20:04.205Z,85.52
2023-03-26T07:22:31.422Z,85.15
2023-03-26T07:25:04.443Z,85.16
2023-03-26T07:27:57.239Z,83.86
2023-03-26T07:31:11.665Z,83.50
2023-03-26T07:34:02.543Z,82.36
2023-03-26T07:37:05.977Z,82.38
2023-03-26T07:40:00.879Z,82.20
2023-03-26T07:43:05.895Z,82.02
2023-03-26T07:45:53.493Z,79.27
2023-03-26T07:48:44.090Z,78.70
2023-03-26T07:51:32.636Z,78.57
2023-03-26T07:54:18.120Z,79.17
2023-03-26T07:57:35.653Z,78.67
2023-03-26T08:00:24.631Z,77.25
2023-03-26T08:03:27.965Z,76.22
2023-03-26T08:06:38.772Z,75.21
2023-03-26T08:09:31.865Z,75.55
2023-03-26T08:12:37.022Z,74.95
2023-03-26T08:15:16.117Z,74.19
2023-03-26T08:17:48.492Z,74.20
2023-03-26T08:20:26.241Z,74.86
2023-03-26T08:23:05.549Z,74.75
2023-03-26T08:25:37.376Z,75.92
2023-03-26T08:28:22.242Z,75.54
2023-03-26T08:30:48.858Z,76.31
2023-03-26T08:33:20.714Z,75.35
2023-03-26T08:35:48.834Z,75.65
2023-03-26T08:38:18.765Z,76.44
2023-03-26T08:41:19.629Z,76.46
2023-03-26T08:44:23.714Z,76.00
2023-03-26T08:47:24.061Z,75.57
2023-03-26T08:50:03.202Z,75.53
2023-03-26T08:53:02.689Z,76.02
2023-03-26T08:55:47.430Z,76.09
2023-03-26T08:58:46.395Z,75.91
2023-03-26T09:01:54.816Z,76.15
2023-03-26T09:04:40.274Z,76.43
2023-03-26T09:07:18.354Z,76.67
2023-03-26T09:10:15.731Z,77.36
2023-03-26T09:13:03.419Z,76.96
2023-03-26T09:16:06.251Z,77.78
2023-03-26T09:18:53.657Z,77.67
2023-03-26T09:21:43.033Z,78.14
2023-03-26T09:24:34.573Z,78.34
2023-03-26T09:27:20.021Z,78.26
2023-03-26T09:30:21.198Z,77.71
2023-03-26T09:33:21.303Z,78.16
2023-03-26T09:35:55.693Z,78.57
2023-03-26T09:38:52.936Z,77.59
2023-03-26T09:41:36.951Z,76.22
2023-03-26T09:44:22.043Z,77.04
2023-03-26T09:47:00.850Z,76.82
2023-03-26T09:49:56.916Z,76.36
2023-03-26T09:52:44.774Z,76.08
2023-03-26T09:55:53.653Z,75.02
2023-03-26T09:58:37.617Z,75.13
2023-03-26T10:01:32.114Z,74.45
2023-03-26T10:04:27.493Z,74.56
2023-03-26T10:07:05.233Z,73.90
2023-03-26T10:09:56.824Z,72.93
2023-03-26T10:12:46.246Z,72.63
2023-03-26T10:15:28.891Z,72.48
2023-03-26T10:18:27.528Z,71.00
2023-03-26T10:21:09.820Z,70.93
2023-03-26T10:24:00.958Z,69.94
2023-03-26T10:26:32.571Z,69.38
2023-03-26T10:29:57.636Z,67.97
2023-03-26T10:33:03.403Z,67.33
2023-03-26T10:35:35.748Z,69.18
2023-03-26T10:38:34.837Z,67.61
2023-03-26T10:41:21.518Z,67.56
2023-03-26T10:44:13.089Z,65.98
2023-03-26T10:47:11.190Z,65.81
2023-03-26T10:50:17.088Z,65.20
2023-03-26T10:53:13.620Z,65.41
2023-03-26T10:55:46.579Z,64.84
2023-03-26T10:58:25.576Z,64.18
2023-03-26T11:00:55.076Z,64.08
2023-03-26T11:03:43.760Z,62.70
2023-03-26T11:06:29.870Z,62.42
2023-03-26T11:09:18.218Z,62.44
2023-03-26T11:11:56.907Z,63.96
2023-03-26T11:14:35.230Z,63.83
2023-03-26T11:17:40.393Z,63.13
2023-03-26T11:20:33.151Z,63.57
2023-03-26T11:23:15.283Z,64.16
2023-03-26T11:25:44.317Z,64.63
2023-03-26T11:28:35.413Z,64.03
2023-03-26T11:31:23.204Z,63.91
2023-03-26T11:33:55.999Z,63.67
2023-03-26T11:36:31.537Z,64.29
2023-03-26T11:39:02.442Z,64.00
2023-03-26T11:41:32.127Z,64.17
2023-03-26T11:44:27.556Z,64.90
2023-03-26T11:46:59.083Z,64.19
2023-03-26T11:49:26.439Z,64.20
2023-03-26T11:51:53.411Z,63.49
2023-03-26T11:54:21.025Z,64.87
2023-03-26T11:57:05.410Z,64.30
2023-03-26T12:00:17.599Z,63.43
2023-03-26T12:02:46.435Z,64.93
2023-03-26T12:05:13.102Z,65.49
2023-03-26T12:07:53.981Z,65.88
2023-03-26T12:10:34.781Z,66.95
2023-03-26T12:13:22.039Z,67.09
2023-03-26T12:15:49.531Z,68.11
2023-03-26T12:18:34.614Z,67.09
2023-03-26T12:21:13.056Z,66.13
2023-03-26T12:24:02.584Z,66.74
2023-03-26T12:26:41.160Z,66.42
2023-03-26T12:29:17.060Z,66.75
2023-03-26T12:31:49.220Z,67.12
2023-03-26T12:34:19.429Z,66.63
2023-03-26T12:36:55.168Z,66.34
2023-03-26T12:40:09.766Z,66.08
2023-03-26T12:44:51.665Z,66.24
2023-03-26T12:45:37.123Z,65.02
2023-03-26T12:48:04.713Z,65.54
2023-03-26T12:51:03.960Z,66.53
2023-03-26T12:54:06.951Z,66.67
2023-03-26T12:57:11.256Z,67.04
2023-03-26T13:00:03.987Z,67.44
2023-03-26T13:03:07.854Z,65.99
2023-03-26T13:05:52.670Z,67.32
2023-03-26T13:09:00.366Z,67.56
2023-03-26T13:11:37.589Z,67.53
2023-03-26T13:14:29.076Z,67.33
2023-03-26T13:17:13.235Z,67.16
2023-03-26T13:20:02.740Z,67.93
2023-03-26T13:23:30.896Z,67.54
2023-03-26T13:26:22.213Z,67.49
2023-03-26T13:29:14.407Z,67.85
2023-03-26T13:31:56.025Z,67.03
2023-03-26T13:35:27.309Z,66.60
2023-03-26T13:38:12.587Z,67.74
2023-03-26T13:41:03.295Z,67.11
2023-03-26T13:43:43.507Z,66.64
2023-03-26T13:46:48.760Z,67.12
2023-03-26T13:49:21.043Z,67.40
2023-03-26T13:51:51.283Z,67.46
2023-03-26T13:54:35.861Z,67.03
2023-03-26T13:57:24.127Z,66.37
2023-03-26T13:59:56.321Z,67.13
2023-03-26T14:02:38.206Z,67.09
2023-03-26T14:05:23.034Z,68.05
2023-03-26T14:08:10.404Z,67.36
2023-03-26T14:10:43.916Z,66.30
2023-03-26T14:13:54.498Z,66.11
2023-03-26T14:16:29.355Z,66.74
2023-03-26T14:19:33.590Z,66.55
2023-03-26T14:22:15.889Z,67.05
2023-03-26T14:25:11.312Z,66.29
2023-03-26T14:27:40.848Z,66.42
2023-03-26T14:30:36.154Z,65.77
2023-03-26T14:33:39.950Z,65.82
2023-03-26T14:36:38.783Z,65.20
2023-03-26T14:39:26.476Z,63.95
2023-03-26T14:42:02.693Z,64.63
2023-03-26T14:45:21.285Z,64.79
2023-03-26T14:48:03.360Z,64.73
2023-03-26T14:50:51.447Z,63.99
2023-03-26T14:53:33.411Z,63.95
2023-03-26T14:56:24.882Z,63.77
2023-03-26T14:59:18.691Z,64.39
2023-03-26T15:02:13.368Z,64.12
2023-03-26T15:05:08.091Z,64.25
2023-03-26T15:07:59.612Z,64.46
2023-03-26T15:11:12.323Z,64.53
2023-03-26T15:14:08.109Z,65.13
2023-03-26T15:16:56.432Z,63.75
2023-03-26T15:19:59.824Z,64.53
2023-03-26T15:22:53.417Z,64.39
2023-03-26T15:25:41.784Z,65.02
2023-03-26T15:28:46.474Z,63.62
2023-03-26T15:31:51.100Z,63.81
2023-03-26T15:34:33.713Z,63.57
2023-03-26T15:37:34.151Z,64.53
2023-03-26T15:40:40.382Z,64.56
2023-03-26T15:43:12.969Z,63.19
2023-03-26T15:45:50.866Z,63.10
2023-03-26T15:48:30.487Z,62.85
2023-03-26T15:51:47.459Z,61.67
2023-03-26T15:54:31.839Z,62.06
2023-03-26T15:57:09.396Z,61.21
2023-03-26T15:59:47.633Z,61.71
2023-03-26T16:02:27.000Z,61.81
2023-03-26T16:05:19.529Z,62.32
2023-03-26T16:08:14.766Z,63.44
2023-03-26T16:10:56.201Z,62.19
2023-03-26T16:13:30.555Z,61.91
2023-03-26T16:16:16.372Z,61.31
2023-03-26T16:18:45.418Z,61.80
2023-03-26T16:21:32.292Z,61.82
2023-03-26T16:24:02.400Z,61.70
2023-03-26T16:26:31.671Z,62.75
2023-03-26T16:29:19.562Z,62.22
2023-03-26T16:32:13.519Z,61.59
2023-03-26T16:34:42.439Z,61.81
2023-03-26T16:37:37.064Z,62.55
2023-03-26T16:40:18.732Z,61.28
2023-03-26T16:42:54.353Z,61.39
2023-03-26T16:45:34.808Z,61.22
2023-03-26T16:48:21.149Z,61.76
2023-03-26T16:51:08.522Z,62.13
2023-03-26T16:53:45.923Z,61.11
2023-03-26T16:56:26.037Z,61.74
2023-03-26T16:59:01.657Z,62.04
2023-03-26T17:01:41.301Z,62.35
2023-03-26T17:04:20.646Z,62.60
2023-03-26T17:07:08.961Z,62.47
2023-03-26T17:09:58.404Z,61.70
2023-03-26T17:12:36.943Z,61.93
2023-03-26T17:15:11.912Z,62.22
2023-03-26T17:17:41.239Z,61.59
2023-03-26T17:20:35.734Z,63.09
2023-03-26T17:23:24.735Z,62.91
2023-03-26T17:26:18.716Z,61.99
2023-03-26T17:29:18.126Z,60.99
2023-03-26T17:31:59.391Z,60.72
2023-03-26T17:34:38.206Z,60.08
2023-03-26T17:37:09.850Z,60.90
2023-03-26T17:39:39.956Z,60.52
2023-03-26T17:42:24.518Z,60.28
2023-03-26T17:45:22.312Z,61.03
2023-03-26T17:47:57.219Z,61.21
2023-03-26T17:50:32.352Z,60.02
2023-03-26T17:53:03.262Z,59.38
2023-03-26T17:55:34.830Z,60.10
2023-03-26T17:58:03.425Z,60.60
2023-03-26T18:00:35.899Z,61.02
2023-03-26T18:03:30.906Z,60.60
2023-03-26T18:06:06.559Z,59.73
2023-03-26T18:08:54.877Z,59.84
2023-03-26T18:11:30.195Z,60.18
2023-03-26T18:14:11.810Z,59.47
2023-03-26T18:16:51.722Z,60.73
2023-03-26T18:19:22.670Z,59.88
2023-03-26T18:22:03.439Z,60.00
2023-03-26T18:24:34.300Z,60.28
2023-03-26T18:27:12.539Z,60.80
2023-03-26T18:29:44.046Z,60.57
2023-03-26T18:32:10.478Z,61.31
2023-03-26T18:34:41.126Z,61.61
2023-03-26T18:37:08.357Z,61.51
2023-03-26T18:39:35.083Z,61.23
2023-03-26T18:42:02.933Z,62.12
2023-03-26T18:44:29.452Z,62.25
2023-03-26T18:46:56.932Z,62.94
2023-03-26T18:49:26.003Z,63.84
2023-03-26T18:51:57.285Z,63.57
2023-03-26T18:54:25.825Z,64.40
2023-03-26T18:56:52.807Z,64.33
2023-03-26T18:59:27.906Z,64.82
2023-03-26T19:02:04.816Z,64.52
2023-03-26T19:04:33.825Z,65.01
2023-03-26T19:07:02.294Z,64.80
2023-03-26T19:09:32.126Z,65.17
2023-03-26T19:12:07.327Z,65.84
2023-03-26T19:14:50.124Z,66.23
2023-03-26T19:17:16.863Z,66.04
2023-03-26T19:19:43.406Z,66.21
2023-03-26T19:22:11.791Z,66.16
2023-03-26T19:24:40.320Z,65.92
2023-03-26T19:27:07.230Z,66.02
2023-03-26T19:29:36.043Z,66.34
2023-03-26T19:32:15.993Z,66.52
2023-03-26T19:34:44.914Z,65.94
2023-03-26T19:37:23.712Z,65.97
2023-03-26T19:39:55.491Z,65.59
2023-03-26T19:42:44.110Z,66.26
2023-03-26T19:45:30.612Z,66.47
2023-03-26T19:48:13.939Z,67.11
2023-03-26T19:50:43.499Z,67.74
2023-03-26T19:53:16.859Z,68.01
2023-03-26T19:55:58.714Z,67.18
2023-03-26T19:58:26.582Z,67.85
2023-03-26T20:00:56.056Z,67.71
2023-03-26T20:03:37.791Z,67.91
2023-03-26T20:06:04.950Z,67.32
2023-03-26T20:08:31.996Z,67.77
2023-03-26T20:10:59.148Z,67.69
2023-03-26T20:13:26.159Z,67.42
2023-03-26T20:16:07.452Z,67.60
2023-03-26T20:18:34.687Z,67.93
2023-03-26T20:21:03.444Z,67.86
2023-03-26T20:23:30.105Z,67.81
2023-03-26T20:25:56.911Z,68.31
2023-03-26T20:28:24.408Z,68.53
2023-03-26T20:30:54.385Z,68.23
2023-03-26T20:33:26.598Z,68.14
2023-03-26T20:35:57.435Z,68.30
2023-03-26T20:38:39.096Z,68.25
2023-03-26T20:41:13.600Z,68.64
2023-03-26T20:43:40.258Z,68.60
2023-03-26T20:46:07.402Z,68.76
2023-03-26T20:48:33.966Z,69.02
2023-03-26T20:51:01.424Z,69.16
2023-03-26T20:53:28.204Z,68.46
2023-03-26T20:55:54.700Z,68.17
2023-03-26T20:58:31.573Z,68.99
2023-03-26T21:01:02.799Z,69.03
2023-03-26T21:03:29.571Z,69.40
2023-03-26T21:06:00.008Z,68.87
2023-03-26T21:08:30.104Z,68.29
2023-03-26T21:11:01.957Z,68.64
2023-03-26T21:13:36.732Z,68.75
2023-03-26T21:16:04.311Z,68.68
2023-03-26T21:18:31.184Z,68.77
2023-03-26T21:21:23.495Z,68.68
2023-03-26T21:24:00.119Z,69.04
2023-03-26T21:26:34.977Z,68.39
2023-03-26T21:29:08.620Z,69.02
2023-03-26T21:31:37.630Z,68.30
2023-03-26T21:34:05.279Z,68.59
2023-03-26T21:36:32.470Z,69.00
2023-03-26T21:38:59.522Z,69.06
2023-03-26T21:41:35.975Z,69.47
2023-03-26T21:44:03.856Z,68.69
2023-03-26T21:46:31.806Z,68.89
2023-03-26T21:48:58.490Z,68.94
2023-03-26T21:51:25.433Z,68.96
2023-03-26T21:53:52.749Z,69.22
2023-03-26T21:56:39.904Z,69.53
2023-03-26T21:59:21.647Z,69.67
2023-03-26T22:02:24.337Z,69.53
2023-03-26T22:05:00.757Z,69.82
2023-03-26T22:07:38.116Z,69.11
2023-03-26T22:10:07.854Z,69.85
2023-03-26T22:12:34.291Z,69.75
2023-03-26T22:15:01.387Z,69.63
2023-03-26T22:17:28.071Z,69.74
2023-03-26T22:19:56.001Z,69.21
2023-03-26T22:22:26.209Z,70.06
2023-03-26T22:24:53.605Z,70.26
2023-03-26T22:27:20.282Z,69.55
2023-03-26T22:29:47.213Z,69.28
2023-03-26T22:32:13.819Z,69.40
2023-03-26T22:34:41.326Z,68.97
2023-03-26T22:37:07.774Z,69.51
2023-03-26T22:39:34.161Z,69.34
2023-03-26T22:42:02.499Z,69.08
2023-03-26T22:44:29.183Z,69.20
2023-03-26T22:46:56.973Z,69.10
2023-03-26T22:49:27.284Z,69.61
2023-03-26T22:51:53.916Z,69.23
2023-03-26T22:54:20.507Z,68.99
2023-03-26T22:56:47.185Z,68.91
2023-03-26T22:59:13.725Z,68.85
2023-03-26T23:01:40.178Z,68.47
2023-03-26T23:04:07.110Z,68.47
2023-03-26T23:06:33.621Z,68.48
2023-03-26T23:09:00.006Z,68.15
2023-03-26T23:11:29.514Z,68.30
2023-03-26T23:13:55.957Z,68.36
2023-03-26T23:16:22.666Z,68.34
2023-03-26T23:18:49.160Z,68.64
2023-03-26T23:21:19.269Z,68.15
2023-03-26T23:23:47.697Z,68.79
2023-03-26T23:26:14.886Z,69.68
2023-03-26T23:28:42.053Z,68.93
2023-03-26T23:31:10.252Z,69.41
2023-03-26T23:33:39.018Z,69.66
2023-03-26T23:36:09.071Z,69.46
2023-03-26T23:38:43.572Z,70.02
2023-03-26T23:41:15.147Z,70.34
2023-03-26T23:43:54.286Z,70.78
2023-03-26T23:46:30.822Z,70.67
2023-03-26T23:48:59.801Z,71.58
2023-03-26T23:51:26.538Z,71.52
2023-03-26T23:53:53.736Z,71.80
2023-03-26T23:56:20.917Z,71.85
2023-03-26T23:58:48.728Z,72.52
